sensor_id;sensor_type;location;lat;lon;timestamp;P1;durP1;ratioP1;P2;durP2;ratioP2
68509;SDS011;55512;50.102;19.958;2022-11-13T00:00:53;37.30;;;15.00;;
68509;SDS011;55512;50.102;19.958;2022-11-13T00:03:19;38.00;;;16.40;;
68509;SDS011;55512;50.102;19.958;2022-11-13T00:05:45;34.70;;;15.50;;
68509;SDS011;55512;50.102;19.958;2022-11-13T00:08:10;36.00;;;15.20;;
68509;SDS011;55512;50.102;19.958;2022-11-13T00:10:36;38.50;;;16.50;;
68509;SDS011;55512;50.102;19.958;2022-11-13T00:13:02;35.10;;;15.60;;
68509;SDS011;55512;50.102;19.958;2022-11-13T00:15:28;37.50;;;15.70;;
68509;SDS011;55512;50.102;19.958;2022-11-13T00:17:53;37.80;;;16.60;;
68509;SDS011;55512;50.102;19.958;2022-11-13T00:20:19;34.50;;;14.40;;
68509;SDS011;55512;50.102;19.958;2022-11-13T00:22:44;35.60;;;16.50;;
68509;SDS011;55512;50.102;19.958;2022-11-13T00:25:11;37.10;;;16.80;;
68509;SDS011;55512;50.102;19.958;2022-11-13T00:27:36;33.60;;;16.40;;
68509;SDS011;55512;50.102;19.958;2022-11-13T00:30:03;36.10;;;15.70;;
68509;SDS011;55512;50.102;19.958;2022-11-13T00:32:29;39.10;;;17.00;;
68509;SDS011;55512;50.102;19.958;2022-11-13T00:34:55;38.00;;;17.10;;
68509;SDS011;55512;50.102;19.958;2022-11-13T00:37:20;36.30;;;16.50;;
68509;SDS011;55512;50.102;19.958;2022-11-13T00:39:46;35.10;;;16.80;;
68509;SDS011;55512;50.102;19.958;2022-11-13T00:42:11;35.90;;;15.90;;
68509;SDS011;55512;50.102;19.958;2022-11-13T00:44:37;37.60;;;16.20;;
68509;SDS011;55512;50.102;19.958;2022-11-13T00:47:02;36.90;;;16.20;;
68509;SDS011;55512;50.102;19.958;2022-11-13T00:49:28;37.40;;;18.10;;
68509;SDS011;55512;50.102;19.958;2022-11-13T00:51:53;41.40;;;18.70;;
68509;SDS011;55512;50.102;19.958;2022-11-13T00:54:19;36.90;;;16.50;;
68509;SDS011;55512;50.102;19.958;2022-11-13T00:56:44;34.60;;;16.00;;
68509;SDS011;55512;50.102;19.958;2022-11-13T00:59:10;37.50;;;16.20;;
68509;SDS011;55512;50.102;19.958;2022-11-13T01:01:35;38.10;;;17.00;;
68509;SDS011;55512;50.102;19.958;2022-11-13T01:04:01;39.70;;;17.20;;
68509;SDS011;55512;50.102;19.958;2022-11-13T01:06:27;38.50;;;16.50;;
68509;SDS011;55512;50.102;19.958;2022-11-13T01:08:54;41.80;;;19.00;;
68509;SDS011;55512;50.102;19.958;2022-11-13T01:11:24;39.10;;;18.20;;
68509;SDS011;55512;50.102;19.958;2022-11-13T01:13:52;40.30;;;18.20;;
68509;SDS011;55512;50.102;19.958;2022-11-13T01:16:20;38.90;;;17.10;;
68509;SDS011;55512;50.102;19.958;2022-11-13T01:18:53;35.90;;;15.40;;
68509;SDS011;55512;50.102;19.958;2022-11-13T01:21:23;37.50;;;17.60;;
68509;SDS011;55512;50.102;19.958;2022-11-13T01:23:50;29.50;;;13.60;;
68509;SDS011;55512;50.102;19.958;2022-11-13T01:26:17;34.30;;;16.10;;
68509;SDS011;55512;50.102;19.958;2022-11-13T01:28:45;35.00;;;16.50;;
68509;SDS011;55512;50.102;19.958;2022-11-13T01:31:18;35.70;;;15.90;;
68509;SDS011;55512;50.102;19.958;2022-11-13T01:33:46;37.80;;;17.20;;
68509;SDS011;55512;50.102;19.958;2022-11-13T01:36:15;40.50;;;16.60;;
68509;SDS011;55512;50.102;19.958;2022-11-13T01:38:42;35.90;;;14.30;;
68509;SDS011;55512;50.102;19.958;2022-11-13T01:41:15;41.70;;;18.90;;
68509;SDS011;55512;50.102;19.958;2022-11-13T01:43:43;42.00;;;17.30;;
68509;SDS011;55512;50.102;19.958;2022-11-13T01:51:50;38.80;;;16.60;;
68509;SDS011;55512;50.102;19.958;2022-11-13T01:54:27;42.30;;;15.70;;
68509;SDS011;55512;50.102;19.958;2022-11-13T01:56:56;42.30;;;17.10;;
68509;SDS011;55512;50.102;19.958;2022-11-13T01:59:25;47.20;;;20.80;;
68509;SDS011;55512;50.102;19.958;2022-11-13T02:01:55;43.40;;;19.70;;
68509;SDS011;55512;50.102;19.958;2022-11-13T02:04:21;38.80;;;17.80;;
68509;SDS011;55512;50.102;19.958;2022-11-13T02:06:51;45.30;;;18.90;;
68509;SDS011;55512;50.102;19.958;2022-11-13T02:09:24;42.80;;;19.40;;
68509;SDS011;55512;50.102;19.958;2022-11-13T02:11:52;48.30;;;20.00;;
68509;SDS011;55512;50.102;19.958;2022-11-13T02:14:21;45.90;;;19.10;;
68509;SDS011;55512;50.102;19.958;2022-11-13T02:16:52;44.70;;;19.00;;
68509;SDS011;55512;50.102;19.958;2022-11-13T02:19:25;44.90;;;19.30;;
68509;SDS011;55512;50.102;19.958;2022-11-13T02:22:12;44.50;;;17.90;;
68509;SDS011;55512;50.102;19.958;2022-11-13T02:24:46;45.90;;;19.80;;
68509;SDS011;55512;50.102;19.958;2022-11-13T02:27:20;46.40;;;18.40;;
68509;SDS011;55512;50.102;19.958;2022-11-13T02:29:52;43.50;;;18.10;;
68509;SDS011;55512;50.102;19.958;2022-11-13T02:32:17;45.80;;;21.20;;
68509;SDS011;55512;50.102;19.958;2022-11-13T02:34:43;47.50;;;20.10;;
68509;SDS011;55512;50.102;19.958;2022-11-13T02:37:08;45.60;;;17.00;;
68509;SDS011;55512;50.102;19.958;2022-11-13T02:39:34;45.80;;;18.70;;
68509;SDS011;55512;50.102;19.958;2022-11-13T02:41:59;47.70;;;19.50;;
68509;SDS011;55512;50.102;19.958;2022-11-13T02:44:25;44.90;;;20.00;;
68509;SDS011;55512;50.102;19.958;2022-11-13T02:46:50;46.00;;;19.20;;
68509;SDS011;55512;50.102;19.958;2022-11-13T02:49:15;46.30;;;21.80;;
68509;SDS011;55512;50.102;19.958;2022-11-13T02:51:41;46.80;;;20.20;;
68509;SDS011;55512;50.102;19.958;2022-11-13T02:54:06;45.80;;;20.80;;
68509;SDS011;55512;50.102;19.958;2022-11-13T02:56:32;43.20;;;17.50;;
68509;SDS011;55512;50.102;19.958;2022-11-13T02:58:57;39.10;;;18.20;;
68509;SDS011;55512;50.102;19.958;2022-11-13T03:01:23;38.90;;;16.50;;
68509;SDS011;55512;50.102;19.958;2022-11-13T03:03:48;41.10;;;17.10;;
68509;SDS011;55512;50.102;19.958;2022-11-13T03:06:14;43.70;;;17.00;;
68509;SDS011;55512;50.102;19.958;2022-11-13T03:08:39;37.20;;;15.20;;
68509;SDS011;55512;50.102;19.958;2022-11-13T03:11:07;39.30;;;17.70;;
68509;SDS011;55512;50.102;19.958;2022-11-13T03:13:34;40.20;;;16.80;;
68509;SDS011;55512;50.102;19.958;2022-11-13T03:16:08;42.90;;;17.90;;
68509;SDS011;55512;50.102;19.958;2022-11-13T03:18:35;39.40;;;18.10;;
68509;SDS011;55512;50.102;19.958;2022-11-13T03:21:08;43.10;;;18.10;;
68509;SDS011;55512;50.102;19.958;2022-11-13T03:23:40;40.50;;;17.20;;
68509;SDS011;55512;50.102;19.958;2022-11-13T03:26:08;37.30;;;13.60;;
68509;SDS011;55512;50.102;19.958;2022-11-13T03:28:36;44.90;;;19.80;;
68509;SDS011;55512;50.102;19.958;2022-11-13T03:31:03;39.30;;;17.70;;
68509;SDS011;55512;50.102;19.958;2022-11-13T03:33:29;39.10;;;15.40;;
68509;SDS011;55512;50.102;19.958;2022-11-13T03:35:55;41.20;;;15.30;;
68509;SDS011;55512;50.102;19.958;2022-11-13T03:38:21;37.70;;;15.80;;
68509;SDS011;55512;50.102;19.958;2022-11-13T03:40:48;38.70;;;16.20;;
68509;SDS011;55512;50.102;19.958;2022-11-13T03:43:14;42.80;;;17.20;;
68509;SDS011;55512;50.102;19.958;2022-11-13T03:45:40;42.20;;;15.50;;
68509;SDS011;55512;50.102;19.958;2022-11-13T03:48:05;43.00;;;17.30;;
68509;SDS011;55512;50.102;19.958;2022-11-13T03:50:31;47.40;;;18.70;;
68509;SDS011;55512;50.102;19.958;2022-11-13T03:52:56;47.30;;;19.40;;
68509;SDS011;55512;50.102;19.958;2022-11-13T03:55:22;42.20;;;17.60;;
68509;SDS011;55512;50.102;19.958;2022-11-13T03:57:47;43.60;;;18.00;;
68509;SDS011;55512;50.102;19.958;2022-11-13T04:00:13;48.60;;;18.40;;
68509;SDS011;55512;50.102;19.958;2022-11-13T04:02:41;47.70;;;19.10;;
68509;SDS011;55512;50.102;19.958;2022-11-13T04:05:08;44.90;;;18.90;;
68509;SDS011;55512;50.102;19.958;2022-11-13T04:07:34;44.30;;;18.00;;
68509;SDS011;55512;50.102;19.958;2022-11-13T04:09:59;42.80;;;18.40;;
68509;SDS011;55512;50.102;19.958;2022-11-13T04:12:25;46.00;;;20.20;;
68509;SDS011;55512;50.102;19.958;2022-11-13T04:14:50;48.80;;;20.50;;
68509;SDS011;55512;50.102;19.958;2022-11-13T04:17:16;53.10;;;20.20;;
68509;SDS011;55512;50.102;19.958;2022-11-13T04:19:41;53.40;;;23.30;;
68509;SDS011;55512;50.102;19.958;2022-11-13T04:22:07;47.60;;;19.50;;
68509;SDS011;55512;50.102;19.958;2022-11-13T04:24:32;42.40;;;19.80;;
68509;SDS011;55512;50.102;19.958;2022-11-13T04:26:58;42.70;;;19.40;;
68509;SDS011;55512;50.102;19.958;2022-11-13T04:29:23;46.40;;;18.60;;
68509;SDS011;55512;50.102;19.958;2022-11-13T04:31:49;44.90;;;19.20;;
68509;SDS011;55512;50.102;19.958;2022-11-13T04:34:14;41.10;;;18.00;;
68509;SDS011;55512;50.102;19.958;2022-11-13T04:36:40;44.40;;;19.10;;
68509;SDS011;55512;50.102;19.958;2022-11-13T04:39:06;37.60;;;16.80;;
68509;SDS011;55512;50.102;19.958;2022-11-13T04:41:32;40.40;;;17.40;;
68509;SDS011;55512;50.102;19.958;2022-11-13T04:44:16;48.80;;;20.20;;
68509;SDS011;55512;50.102;19.958;2022-11-13T04:46:41;41.00;;;17.80;;
68509;SDS011;55512;50.102;19.958;2022-11-13T04:49:07;45.70;;;19.60;;
68509;SDS011;55512;50.102;19.958;2022-11-13T04:51:32;41.60;;;18.10;;
68509;SDS011;55512;50.102;19.958;2022-11-13T04:53:58;43.40;;;18.70;;
68509;SDS011;55512;50.102;19.958;2022-11-13T04:56:23;48.30;;;18.40;;
68509;SDS011;55512;50.102;19.958;2022-11-13T04:58:49;48.50;;;18.70;;
68509;SDS011;55512;50.102;19.958;2022-11-13T05:01:15;51.50;;;21.30;;
68509;SDS011;55512;50.102;19.958;2022-11-13T05:03:41;52.90;;;21.20;;
68509;SDS011;55512;50.102;19.958;2022-11-13T05:06:08;49.30;;;20.70;;
68509;SDS011;55512;50.102;19.958;2022-11-13T05:08:34;54.60;;;21.60;;
68509;SDS011;55512;50.102;19.958;2022-11-13T05:11:02;52.00;;;20.70;;
68509;SDS011;55512;50.102;19.958;2022-11-13T05:13:35;55.00;;;21.60;;
68509;SDS011;55512;50.102;19.958;2022-11-13T05:16:09;55.30;;;21.90;;
68509;SDS011;55512;50.102;19.958;2022-11-13T05:18:37;51.50;;;21.60;;
68509;SDS011;55512;50.102;19.958;2022-11-13T05:21:04;52.20;;;21.10;;
68509;SDS011;55512;50.102;19.958;2022-11-13T05:23:32;56.00;;;21.70;;
68509;SDS011;55512;50.102;19.958;2022-11-13T05:26:07;53.70;;;22.30;;
68509;SDS011;55512;50.102;19.958;2022-11-13T05:28:35;50.20;;;20.30;;
68509;SDS011;55512;50.102;19.958;2022-11-13T05:31:07;51.60;;;20.90;;
68509;SDS011;55512;50.102;19.958;2022-11-13T05:33:34;52.70;;;20.60;;
68509;SDS011;55512;50.102;19.958;2022-11-13T05:36:08;50.90;;;21.80;;
68509;SDS011;55512;50.102;19.958;2022-11-13T05:38:35;45.30;;;19.70;;
68509;SDS011;55512;50.102;19.958;2022-11-13T05:41:07;47.70;;;19.30;;
68509;SDS011;55512;50.102;19.958;2022-11-13T05:43:35;51.30;;;20.80;;
68509;SDS011;55512;50.102;19.958;2022-11-13T05:46:05;51.20;;;20.20;;
68509;SDS011;55512;50.102;19.958;2022-11-13T05:48:33;49.00;;;19.80;;
68509;SDS011;55512;50.102;19.958;2022-11-13T05:53:36;48.10;;;20.20;;
68509;SDS011;55512;50.102;19.958;2022-11-13T05:56:08;53.90;;;21.10;;
68509;SDS011;55512;50.102;19.958;2022-11-13T05:58:36;47.80;;;20.20;;
68509;SDS011;55512;50.102;19.958;2022-11-13T06:01:18;51.80;;;20.70;;
68509;SDS011;55512;50.102;19.958;2022-11-13T06:03:45;43.80;;;17.30;;
68509;SDS011;55512;50.102;19.958;2022-11-13T06:06:13;44.00;;;16.70;;
68509;SDS011;55512;50.102;19.958;2022-11-13T06:08:42;48.30;;;19.50;;
68509;SDS011;55512;50.102;19.958;2022-11-13T06:11:11;51.00;;;19.30;;
68509;SDS011;55512;50.102;19.958;2022-11-13T06:13:39;45.30;;;19.30;;
68509;SDS011;55512;50.102;19.958;2022-11-13T06:16:25;48.70;;;19.90;;
68509;SDS011;55512;50.102;19.958;2022-11-13T06:18:55;47.40;;;18.20;;
68509;SDS011;55512;50.102;19.958;2022-11-13T06:21:28;45.60;;;19.40;;
68509;SDS011;55512;50.102;19.958;2022-11-13T06:23:56;43.60;;;19.60;;
68509;SDS011;55512;50.102;19.958;2022-11-13T06:26:25;46.30;;;20.00;;
68509;SDS011;55512;50.102;19.958;2022-11-13T06:28:53;50.10;;;18.50;;
68509;SDS011;55512;50.102;19.958;2022-11-13T06:31:22;44.30;;;19.00;;
68509;SDS011;55512;50.102;19.958;2022-11-13T06:33:49;43.20;;;17.70;;
68509;SDS011;55512;50.102;19.958;2022-11-13T06:36:20;44.60;;;19.30;;
68509;SDS011;55512;50.102;19.958;2022-11-13T06:38:48;42.30;;;17.70;;
68509;SDS011;55512;50.102;19.958;2022-11-13T06:41:17;37.20;;;17.30;;
68509;SDS011;55512;50.102;19.958;2022-11-13T06:43:45;32.90;;;16.10;;
68509;SDS011;55512;50.102;19.958;2022-11-13T06:46:23;45.20;;;17.30;;
68509;SDS011;55512;50.102;19.958;2022-11-13T06:48:50;38.20;;;17.00;;
68509;SDS011;55512;50.102;19.958;2022-11-13T06:51:18;40.80;;;18.80;;
68509;SDS011;55512;50.102;19.958;2022-11-13T06:53:46;40.10;;;17.20;;
68509;SDS011;55512;50.102;19.958;2022-11-13T06:56:12;37.90;;;17.70;;
68509;SDS011;55512;50.102;19.958;2022-11-13T06:58:38;38.80;;;17.40;;
68509;SDS011;55512;50.102;19.958;2022-11-13T07:03:32;43.60;;;19.70;;
68509;SDS011;55512;50.102;19.958;2022-11-13T07:06:00;36.90;;;16.40;;
68509;SDS011;55512;50.102;19.958;2022-11-13T07:08:28;43.40;;;18.00;;
68509;SDS011;55512;50.102;19.958;2022-11-13T07:10:55;42.20;;;18.40;;
68509;SDS011;55512;50.102;19.958;2022-11-13T07:13:22;43.10;;;17.60;;
68509;SDS011;55512;50.102;19.958;2022-11-13T07:15:49;38.50;;;16.30;;
68509;SDS011;55512;50.102;19.958;2022-11-13T07:18:15;42.10;;;17.30;;
68509;SDS011;55512;50.102;19.958;2022-11-13T07:20:40;40.10;;;18.10;;
68509;SDS011;55512;50.102;19.958;2022-11-13T07:23:06;50.50;;;20.00;;
68509;SDS011;55512;50.102;19.958;2022-11-13T07:25:32;42.30;;;17.70;;
68509;SDS011;55512;50.102;19.958;2022-11-13T07:27:58;42.00;;;17.10;;
68509;SDS011;55512;50.102;19.958;2022-11-13T07:30:24;41.90;;;16.50;;
68509;SDS011;55512;50.102;19.958;2022-11-13T07:32:50;35.80;;;15.80;;
68509;SDS011;55512;50.102;19.958;2022-11-13T07:35:15;38.80;;;16.60;;
68509;SDS011;55512;50.102;19.958;2022-11-13T07:37:42;42.20;;;18.00;;
68509;SDS011;55512;50.102;19.958;2022-11-13T07:40:09;43.90;;;18.20;;
68509;SDS011;55512;50.102;19.958;2022-11-13T07:42:35;40.00;;;16.90;;
68509;SDS011;55512;50.102;19.958;2022-11-13T07:45:01;40.20;;;17.40;;
68509;SDS011;55512;50.102;19.958;2022-11-13T07:47:27;41.90;;;16.30;;
68509;SDS011;55512;50.102;19.958;2022-11-13T07:49:52;37.20;;;13.20;;
68509;SDS011;55512;50.102;19.958;2022-11-13T07:52:18;42.10;;;15.70;;
68509;SDS011;55512;50.102;19.958;2022-11-13T07:54:43;40.00;;;15.20;;
68509;SDS011;55512;50.102;19.958;2022-11-13T07:57:09;40.70;;;15.80;;
68509;SDS011;55512;50.102;19.958;2022-11-13T07:59:34;40.70;;;17.70;;
68509;SDS011;55512;50.102;19.958;2022-11-13T08:02:00;40.60;;;15.90;;
68509;SDS011;55512;50.102;19.958;2022-11-13T08:04:26;39.70;;;16.90;;
68509;SDS011;55512;50.102;19.958;2022-11-13T08:06:52;36.40;;;16.20;;
68509;SDS011;55512;50.102;19.958;2022-11-13T08:09:17;40.20;;;16.40;;
68509;SDS011;55512;50.102;19.958;2022-11-13T08:11:43;40.50;;;17.00;;
68509;SDS011;55512;50.102;19.958;2022-11-13T08:14:09;44.90;;;18.90;;
68509;SDS011;55512;50.102;19.958;2022-11-13T08:16:35;40.10;;;17.20;;
68509;SDS011;55512;50.102;19.958;2022-11-13T08:19:01;41.80;;;17.60;;
68509;SDS011;55512;50.102;19.958;2022-11-13T08:21:28;39.50;;;15.30;;
68509;SDS011;55512;50.102;19.958;2022-11-13T08:23:53;36.80;;;15.40;;
68509;SDS011;55512;50.102;19.958;2022-11-13T08:26:19;37.70;;;17.60;;
68509;SDS011;55512;50.102;19.958;2022-11-13T08:28:45;38.00;;;16.30;;
68509;SDS011;55512;50.102;19.958;2022-11-13T08:31:12;35.40;;;16.60;;
68509;SDS011;55512;50.102;19.958;2022-11-13T08:33:41;47.60;;;18.40;;
68509;SDS011;55512;50.102;19.958;2022-11-13T08:36:08;39.70;;;17.30;;
68509;SDS011;55512;50.102;19.958;2022-11-13T08:38:34;44.10;;;19.20;;
68509;SDS011;55512;50.102;19.958;2022-11-13T08:41:03;41.10;;;18.10;;
68509;SDS011;55512;50.102;19.958;2022-11-13T08:43:29;43.10;;;17.80;;
68509;SDS011;55512;50.102;19.958;2022-11-13T08:45:55;42.80;;;18.00;;
68509;SDS011;55512;50.102;19.958;2022-11-13T08:48:21;43.70;;;17.10;;
68509;SDS011;55512;50.102;19.958;2022-11-13T08:50:52;49.90;;;19.70;;
68509;SDS011;55512;50.102;19.958;2022-11-13T08:53:20;44.50;;;19.90;;
68509;SDS011;55512;50.102;19.958;2022-11-13T08:55:47;44.80;;;19.80;;
68509;SDS011;55512;50.102;19.958;2022-11-13T08:58:13;50.30;;;19.20;;
68509;SDS011;55512;50.102;19.958;2022-11-13T09:00:39;40.10;;;19.10;;
68509;SDS011;55512;50.102;19.958;2022-11-13T09:03:05;45.20;;;19.30;;
68509;SDS011;55512;50.102;19.958;2022-11-13T09:05:30;47.90;;;19.50;;
68509;SDS011;55512;50.102;19.958;2022-11-13T09:07:59;53.20;;;20.70;;
68509;SDS011;55512;50.102;19.958;2022-11-13T09:10:26;52.70;;;20.00;;
68509;SDS011;55512;50.102;19.958;2022-11-13T09:12:59;43.10;;;18.30;;
68509;SDS011;55512;50.102;19.958;2022-11-13T09:15:28;54.20;;;22.40;;
68509;SDS011;55512;50.102;19.958;2022-11-13T09:17:56;53.10;;;23.20;;
68509;SDS011;55512;50.102;19.958;2022-11-13T09:20:23;50.40;;;19.70;;
68509;SDS011;55512;50.102;19.958;2022-11-13T09:23:01;52.80;;;21.50;;
68509;SDS011;55512;50.102;19.958;2022-11-13T09:25:30;46.90;;;19.70;;
68509;SDS011;55512;50.102;19.958;2022-11-13T09:27:59;58.00;;;23.60;;
68509;SDS011;55512;50.102;19.958;2022-11-13T09:30:27;53.30;;;22.40;;
68509;SDS011;55512;50.102;19.958;2022-11-13T09:32:55;58.10;;;23.10;;
68509;SDS011;55512;50.102;19.958;2022-11-13T09:35:22;56.00;;;24.40;;
68509;SDS011;55512;50.102;19.958;2022-11-13T09:38:07;62.30;;;22.90;;
68509;SDS011;55512;50.102;19.958;2022-11-13T09:40:42;56.40;;;22.40;;
68509;SDS011;55512;50.102;19.958;2022-11-13T09:43:24;47.90;;;19.80;;
68509;SDS011;55512;50.102;19.958;2022-11-13T09:49:17;53.90;;;20.20;;
68509;SDS011;55512;50.102;19.958;2022-11-13T09:52:10;46.60;;;18.50;;
68509;SDS011;55512;50.102;19.958;2022-11-13T09:54:39;55.00;;;23.20;;
68509;SDS011;55512;50.102;19.958;2022-11-13T10:00:05;47.10;;;20.20;;
68509;SDS011;55512;50.102;19.958;2022-11-13T10:05:56;48.10;;;19.80;;
68509;SDS011;55512;50.102;19.958;2022-11-13T10:11:39;38.40;;;15.70;;
68509;SDS011;55512;50.102;19.958;2022-11-13T10:14:30;49.80;;;18.90;;
68509;SDS011;55512;50.102;19.958;2022-11-13T10:20:22;47.90;;;18.50;;
68509;SDS011;55512;50.102;19.958;2022-11-13T10:22:55;50.00;;;18.30;;
68509;SDS011;55512;50.102;19.958;2022-11-13T10:25:31;40.10;;;15.20;;
68509;SDS011;55512;50.102;19.958;2022-11-13T10:28:01;40.40;;;15.40;;
68509;SDS011;55512;50.102;19.958;2022-11-13T10:30:39;40.20;;;15.20;;
68509;SDS011;55512;50.102;19.958;2022-11-13T10:33:07;44.10;;;17.80;;
68509;SDS011;55512;50.102;19.958;2022-11-13T10:41:15;44.00;;;19.30;;
68509;SDS011;55512;50.102;19.958;2022-11-13T10:43:54;44.50;;;18.40;;
68509;SDS011;55512;50.102;19.958;2022-11-13T10:46:25;43.70;;;17.90;;
68509;SDS011;55512;50.102;19.958;2022-11-13T10:48:55;35.30;;;13.90;;
68509;SDS011;55512;50.102;19.958;2022-11-13T10:51:29;49.90;;;19.90;;
68509;SDS011;55512;50.102;19.958;2022-11-13T10:53:58;49.60;;;18.70;;
68509;SDS011;55512;50.102;19.958;2022-11-13T10:56:31;40.50;;;16.80;;
68509;SDS011;55512;50.102;19.958;2022-11-13T10:59:18;42.30;;;17.40;;
68509;SDS011;55512;50.102;19.958;2022-11-13T11:01:46;41.00;;;17.20;;
68509;SDS011;55512;50.102;19.958;2022-11-13T11:04:22;42.90;;;17.30;;
68509;SDS011;55512;50.102;19.958;2022-11-13T11:06:52;42.30;;;17.40;;
68509;SDS011;55512;50.102;19.958;2022-11-13T11:09:25;45.30;;;19.00;;
68509;SDS011;55512;50.102;19.958;2022-11-13T11:17:59;44.20;;;18.20;;
68509;SDS011;55512;50.102;19.958;2022-11-13T11:20:55;45.80;;;17.50;;
68509;SDS011;55512;50.102;19.958;2022-11-13T11:23:56;38.40;;;15.50;;
68509;SDS011;55512;50.102;19.958;2022-11-13T11:26:33;41.00;;;16.50;;
68509;SDS011;55512;50.102;19.958;2022-11-13T11:29:12;42.60;;;16.80;;
68509;SDS011;55512;50.102;19.958;2022-11-13T11:31:50;41.80;;;16.40;;
68509;SDS011;55512;50.102;19.958;2022-11-13T11:34:37;29.30;;;14.00;;
68509;SDS011;55512;50.102;19.958;2022-11-13T11:37:35;42.90;;;17.70;;
68509;SDS011;55512;50.102;19.958;2022-11-13T11:40:29;42.30;;;15.30;;
68509;SDS011;55512;50.102;19.958;2022-11-13T11:43:12;44.40;;;19.60;;
68509;SDS011;55512;50.102;19.958;2022-11-13T11:45:45;51.70;;;20.90;;
68509;SDS011;55512;50.102;19.958;2022-11-13T11:48:14;42.70;;;18.20;;
68509;SDS011;55512;50.102;19.958;2022-11-13T11:56:43;37.30;;;15.40;;
68509;SDS011;55512;50.102;19.958;2022-11-13T12:07:44;34.90;;;15.50;;
68509;SDS011;55512;50.102;19.958;2022-11-13T12:10:36;35.00;;;15.60;;
68509;SDS011;55512;50.102;19.958;2022-11-13T12:15:59;24.20;;;10.80;;
68509;SDS011;55512;50.102;19.958;2022-11-13T12:21:21;38.60;;;16.70;;
68509;SDS011;55512;50.102;19.958;2022-11-13T12:29:28;40.00;;;18.40;;
68509;SDS011;55512;50.102;19.958;2022-11-13T12:32:18;34.70;;;14.30;;
68509;SDS011;55512;50.102;19.958;2022-11-13T12:35:03;35.90;;;15.90;;
68509;SDS011;55512;50.102;19.958;2022-11-13T12:41:00;37.10;;;15.70;;
68509;SDS011;55512;50.102;19.958;2022-11-13T12:46:45;44.50;;;18.20;;
68509;SDS011;55512;50.102;19.958;2022-11-13T12:49:32;41.60;;;17.90;;
68509;SDS011;55512;50.102;19.958;2022-11-13T12:52:20;34.00;;;15.40;;
68509;SDS011;55512;50.102;19.958;2022-11-13T12:54:48;37.80;;;18.40;;
68509;SDS011;55512;50.102;19.958;2022-11-13T12:57:19;39.70;;;16.20;;
68509;SDS011;55512;50.102;19.958;2022-11-13T12:59:53;35.60;;;15.80;;
68509;SDS011;55512;50.102;19.958;2022-11-13T13:09:02;41.10;;;17.00;;
68509;SDS011;55512;50.102;19.958;2022-11-13T13:11:59;44.60;;;18.40;;
68509;SDS011;55512;50.102;19.958;2022-11-13T13:17:24;41.10;;;18.00;;
68509;SDS011;55512;50.102;19.958;2022-11-13T13:22:32;42.70;;;17.60;;
68509;SDS011;55512;50.102;19.958;2022-11-13T13:25:06;49.10;;;19.70;;
68509;SDS011;55512;50.102;19.958;2022-11-13T13:27:59;41.60;;;16.90;;
68509;SDS011;55512;50.102;19.958;2022-11-13T13:30:28;44.40;;;18.80;;
68509;SDS011;55512;50.102;19.958;2022-11-13T13:33:12;37.70;;;16.70;;
68509;SDS011;55512;50.102;19.958;2022-11-13T13:38:53;39.80;;;17.00;;
68509;SDS011;55512;50.102;19.958;2022-11-13T13:46:46;35.70;;;16.20;;
68509;SDS011;55512;50.102;19.958;2022-11-13T13:49:14;32.90;;;15.60;;
68509;SDS011;55512;50.102;19.958;2022-11-13T13:51:45;37.90;;;17.10;;
68509;SDS011;55512;50.102;19.958;2022-11-13T13:54:22;40.00;;;17.80;;
68509;SDS011;55512;50.102;19.958;2022-11-13T13:56:51;39.20;;;16.90;;
68509;SDS011;55512;50.102;19.958;2022-11-13T13:59:34;35.70;;;15.80;;
68509;SDS011;55512;50.102;19.958;2022-11-13T14:02:03;33.90;;;15.60;;
68509;SDS011;55512;50.102;19.958;2022-11-13T14:04:43;34.40;;;16.20;;
68509;SDS011;55512;50.102;19.958;2022-11-13T14:07:24;36.20;;;15.30;;
68509;SDS011;55512;50.102;19.958;2022-11-13T14:12:32;32.20;;;14.40;;
68509;SDS011;55512;50.102;19.958;2022-11-13T14:14:57;32.90;;;15.40;;
68509;SDS011;55512;50.102;19.958;2022-11-13T14:17:23;34.20;;;15.80;;
68509;SDS011;55512;50.102;19.958;2022-11-13T14:19:55;32.90;;;14.60;;
68509;SDS011;55512;50.102;19.958;2022-11-13T14:22:25;31.70;;;15.40;;
68509;SDS011;55512;50.102;19.958;2022-11-13T14:24:55;32.70;;;13.90;;
68509;SDS011;55512;50.102;19.958;2022-11-13T14:27:25;29.50;;;13.80;;
68509;SDS011;55512;50.102;19.958;2022-11-13T14:30:00;29.60;;;13.80;;
68509;SDS011;55512;50.102;19.958;2022-11-13T14:32:32;32.00;;;16.70;;
68509;SDS011;55512;50.102;19.958;2022-11-13T14:35:04;29.60;;;14.30;;
68509;SDS011;55512;50.102;19.958;2022-11-13T14:37:33;28.10;;;13.70;;
68509;SDS011;55512;50.102;19.958;2022-11-13T14:40:20;30.70;;;15.20;;
68509;SDS011;55512;50.102;19.958;2022-11-13T14:42:53;31.00;;;15.60;;
68509;SDS011;55512;50.102;19.958;2022-11-13T14:45:27;30.80;;;14.10;;
68509;SDS011;55512;50.102;19.958;2022-11-13T14:48:15;31.00;;;15.00;;
68509;SDS011;55512;50.102;19.958;2022-11-13T14:53:32;35.40;;;16.00;;
68509;SDS011;55512;50.102;19.958;2022-11-13T14:56:03;30.90;;;14.80;;
68509;SDS011;55512;50.102;19.958;2022-11-13T15:01:21;34.00;;;15.10;;
68509;SDS011;55512;50.102;19.958;2022-11-13T15:03:50;31.30;;;15.30;;
68509;SDS011;55512;50.102;19.958;2022-11-13T15:06:22;32.50;;;15.80;;
68509;SDS011;55512;50.102;19.958;2022-11-13T15:08:53;32.10;;;15.30;;
68509;SDS011;55512;50.102;19.958;2022-11-13T15:11:23;31.70;;;14.70;;
68509;SDS011;55512;50.102;19.958;2022-11-13T15:13:49;31.50;;;15.10;;
68509;SDS011;55512;50.102;19.958;2022-11-13T15:16:17;31.60;;;14.00;;
68509;SDS011;55512;50.102;19.958;2022-11-13T15:18:52;32.90;;;16.20;;
68509;SDS011;55512;50.102;19.958;2022-11-13T15:21:22;35.30;;;14.90;;
68509;SDS011;55512;50.102;19.958;2022-11-13T15:23:48;34.50;;;16.10;;
68509;SDS011;55512;50.102;19.958;2022-11-13T15:26:13;34.30;;;15.30;;
68509;SDS011;55512;50.102;19.958;2022-11-13T15:28:39;39.10;;;17.50;;
68509;SDS011;55512;50.102;19.958;2022-11-13T15:31:35;36.30;;;16.00;;
68509;SDS011;55512;50.102;19.958;2022-11-13T15:34:12;35.00;;;16.30;;
68509;SDS011;55512;50.102;19.958;2022-11-13T15:36:39;36.80;;;17.60;;
68509;SDS011;55512;50.102;19.958;2022-11-13T15:39:06;38.20;;;16.30;;
68509;SDS011;55512;50.102;19.958;2022-11-13T15:41:32;38.70;;;15.80;;
68509;SDS011;55512;50.102;19.958;2022-11-13T15:44:00;37.30;;;14.70;;
68509;SDS011;55512;50.102;19.958;2022-11-13T15:46:30;34.10;;;14.40;;
68509;SDS011;55512;50.102;19.958;2022-11-13T15:48:56;40.30;;;16.10;;
68509;SDS011;55512;50.102;19.958;2022-11-13T15:51:42;36.50;;;14.70;;
68509;SDS011;55512;50.102;19.958;2022-11-13T15:56:57;35.30;;;15.20;;
68509;SDS011;55512;50.102;19.958;2022-11-13T15:59:22;38.90;;;16.80;;
68509;SDS011;55512;50.102;19.958;2022-11-13T16:01:48;34.30;;;15.90;;
68509;SDS011;55512;50.102;19.958;2022-11-13T16:04:14;39.70;;;17.20;;
68509;SDS011;55512;50.102;19.958;2022-11-13T16:06:40;44.90;;;18.90;;